Tiempo atmosférico en la estación meteorológica de Boadilla Fuente San Esteban, Salamanca (785 m.)

Fecha
DESCASC
Temp. máxima en grados centígrados (hora)
DESCASC
Temp. mínima en grados centígrados (hora)
DESCASC
Temp. media en grados centígrados
DESCASC
Racha de viento máxima en m/sg (hora)
DESCASC
Velocidad máxima media en intervalos de 10 minutos(hora)
DESCASC
Precipitaciones diarias en mm
DESCASC
Precipitaciones de 00:00 a 06:00 en mm
DESCASC
Precipitaciones de 06:00 a 12:00 en mm
DESCASC
Precipitaciones de 12:00 a 18:00 en mm
DESCASC
Precipitaciones de 18:00 a 24:00 en mm
DESCASC
21-08-2017 36.1 (15:50) 17.2 (07:00) 26.6 14.72 (16:30) 5.83 (19:30) 0 0 0 0 0
20-08-2017 34 (18:50) 14.8 (07:30) 24.4 12.22 (13:30) 7.5 (12:40) 0 0 0 0 0
19-08-2017 31.9 (18:40) 15.9 (07:50) 23.9 8.61 (13:40) 5.56 (13:40) 0 0 0 0 0
18-08-2017 31.8 (16:30) 15.7 (07:50) 23.7 8.06 (18:40) 5 (18:40) 0 0 0 0 0
17-08-2017 33.8 (18:30) 15.8 (00:00) 24.8 7.22 (15:40) 4.17 (20:20) 0 0 0 0 0
16-08-2017 31.3 (18:00) 13.2 (00:00) 22.2 6.11 (19:10) 3.89 (20:10) 0 0 0 0 0
15-08-2017 30.3 (17:50) 14.5 (00:00) 22.4 13.89 (17:20) 6.39 (16:30) 0 0 0 0 0
14-08-2017 34 (17:10) 15.8 (07:10) 24.9 11.39 (17:00) 6.94 (18:40) 0 0 0 0 0
13-08-2017 33.5 (17:30) 14.2 (00:00) 23.8 7.5 (09:30) 5.83 (09:30) 0 0 0 0 0
12-08-2017 31.3 (18:50) 11 (00:00) 21.1 9.44 (17:20) 5 (09:30) 0 0 0 0 0
11-08-2017 27.4 (18:30) 10.3 (00:00) 18.8 10.28 (09:30) 6.67 (10:10) 0 0 0 0 0
10-08-2017 24.2 (17:40) 8 (00:00) 16.1 14.44 (01:30) 10 (10:50) 0 0 0 0 0
09-08-2017 23 (17:20) 8.3 (00:00) 15.7 11.94 (17:30) 8.33 (23:59) 0 0 0 0 0
08-08-2017 25.8 (19:20) 8.7 (00:00) 17.2 9.72 (11:50) 6.11 (12:30) 0 0 0 0 0
07-08-2017 30.9 (16:40) 13.4 (00:00) 22.1 11.11 (17:20) 6.94 (17:20) 0 0 0 0 0
06-08-2017 31.7 (19:30) 14.1 (00:00) 22.9 11.39 (09:10) 8.06 (09:10) 0 0 0 0 0
05-08-2017 33.6 (17:00) 15.8 (00:00) 24.7 9.44 (23:40) 6.67 (23:40) 0 0 0 0 0
04-08-2017 34.7 (17:20) 16.8 (00:00) 25.8 8.89 (17:10) 5.28 (18:50) 0 0 0 0 0
03-08-2017 31.1 (17:30) 14.1 (00:00) 22.6 9.72 (18:00) 5.56 (18:40) 0 0 0 0 0
02-08-2017 31.7 (18:00) 10.9 (00:00) 21.3 7.5 (17:50) 4.44 (17:00) 0 0 0 0 0
01-08-2017 27.8 (17:00) 11.3 (00:00) 19.5 7.5 (17:30) 4.17 (19:10) 0.6 0.6 0 0 0
31-07-2017 26.2 (15:50) 11 (00:00) 18.6 10.83 (16:30) 6.94 (16:30) 0 0 0 0 0
30-07-2017 31 (18:00) 15.1 (00:00) 23.1 9.72 (20:00) 6.39 (20:10) 0 0 0 0 0
29-07-2017 32.6 (18:40) 16.1 (00:00) 24.3 10 (19:40) 6.11 (19:40) 0 0 0 0 0
28-07-2017 32.7 (18:20) 14.4 (00:00) 23.6 9.17 (16:20) 5.28 (18:40) 0 0 0 0 0
27-07-2017 33.9 (17:50) 15.8 (00:00) 24.9 10 (15:00) 5.28 (17:30) 0 0 0 0 0
26-07-2017 32.7 (18:20) 14.8 (00:00) 23.8 7.22 (18:20) 4.44 (19:30) 0 0 0 0 0
25-07-2017 28.9 (18:50) 13.5 (00:00) 21.2 10.83 (19:10) 6.67 (02:30) 0 0 0 0 0
24-07-2017 30.2 (18:30) 13.2 (00:00) 21.7 7.78 (15:50) 5 (21:00) 0 0 0 0 0
23-07-2017 30.5 (18:10) 10.6 (00:00) 20.6 9.44 (22:00) 6.39 (21:40) 0 0 0 0 0

Gráficas

Temp. máximas Temp. mínimas Temp. medias Precipitaciones Rachas de viento máximas Velocidades máximas media en intervalos de 10 minutos

Datos horarios

Fecha y hora oficial Temperatura (ºC) Velocidad del viento (km/h) Dirección del viento Racha (km/h) Dirección de racha Precipitación (mm) Presión (hPa) Tendencia (hPa) Humedad (%)
2017-08-21 23:00:00 26 5 Sudoeste 10 Sudoeste 0 -- -- 42
2017-08-21 22:00:00 28.6 9 Sudoeste 23 Sudoeste 0 -- -- 38
2017-08-21 21:00:00 30.7 14 Sudoeste 33 Sudoeste 0 -- -- 34
2017-08-21 20:00:00 32.9 19 Sudoeste 34 Sudoeste 0 -- -- 31
2017-08-21 19:00:00 34.8 18 Sudoeste 34 Sur 0 -- -- 27
2017-08-21 18:00:00 35.6 18 Sur 34 Sur 0 -- -- 25
2017-08-21 17:00:00 35.5 18 Sur 53 Sudeste 0 -- -- 25
2017-08-21 16:00:00 36 14 Sudoeste 30 Sudoeste 0 -- -- 23
2017-08-21 15:00:00 35.3 14 Oeste 26 Sudoeste 0 -- -- 25
2017-08-21 14:00:00 33.9 8 Noroeste 17 Sudoeste 0 -- -- 25
2017-08-21 13:00:00 31.6 6 Oeste 13 Noroeste 0 -- -- 25
2017-08-21 12:00:00 28.9 4 Oeste 16 Oeste 0 -- -- 28
2017-08-21 11:00:00 25.9 5 Este 17 Este 0 -- -- 31
2017-08-21 10:00:00 22.3 12 Nordeste 22 Nordeste 0 -- -- 35
2017-08-21 09:00:00 19.5 13 Nordeste 20 Este 0 -- -- 39
2017-08-21 08:00:00 18 8 Nordeste 18 Este 0 -- -- 41
2017-08-21 07:00:00 17.2 6 Este 14 Nordeste 0 -- -- 42
2017-08-21 06:00:00 18.1 11 Nordeste 19 Nordeste 0 -- -- 40
2017-08-21 05:00:00 19.1 11 Nordeste 17 Este 0 -- -- 37
2017-08-21 04:00:00 19.9 14 Nordeste 21 Nordeste 0 -- -- 35
2017-08-21 03:00:00 21.4 13 Este 23 Este 0 -- -- 32
2017-08-21 02:00:00 22.2 11 Este 22 Este 0 -- -- 31
2017-08-21 01:00:00 23.8 16 Este 28 Este 0 -- -- 28
2017-08-21 00:00:00 24 14 Este 25 Este 0 -- -- 26
2017-08-20 23:00:00 25.2 15 Este 20 Este 0 -- -- 24
2017-08-20 22:00:00 26.8 11 Nordeste 20 Nordeste 0 -- -- 22
2017-08-20 21:00:00 30.7 14 Nordeste 28 Nordeste 0 -- -- 18
2017-08-20 20:00:00 33 22 Nordeste 28 Nordeste 0 -- -- 18
2017-08-20 19:00:00 33.9 15 Nordeste 27 Este 0 -- -- 18
2017-08-20 18:00:00 33.9 14 Nordeste 29 Nordeste 0 -- -- 19
2017-08-20 17:00:00 33.4 18 Nordeste 32 Nordeste 0 -- -- 19
2017-08-20 16:00:00 32.9 22 Nordeste 36 Nordeste 0 -- -- 20
2017-08-20 15:00:00 31.8 18 Nordeste 31 Nordeste 0 -- -- 23
2017-08-20 14:00:00 30.4 21 Este 44 Nordeste 0 -- -- 24
2017-08-20 13:00:00 28.6 25 Nordeste 37 Nordeste 0 -- -- 28
2017-08-20 12:00:00 25.7 26 Nordeste 33 Nordeste 0 -- -- 37
2017-08-20 11:00:00 22.6 22 Nordeste 31 Este 0 -- -- 44
2017-08-20 10:00:00 18.9 22 Nordeste 28 Este 0 -- -- 54
2017-08-20 09:00:00 16.2 21 Este 31 Este 0 -- -- 63
2017-08-20 08:00:00 15 18 Este 33 Este 0 -- -- 67
2017-08-20 07:00:00 15.2 13 Este 27 Este 0 -- -- 67
2017-08-20 06:00:00 16.4 21 Este 33 Nordeste 0 -- -- 62
2017-08-20 05:00:00 17.6 21 Este 33 Este 0 -- -- 58
2017-08-20 04:00:00 19.3 20 Nordeste 30 Este 0 -- -- 49
2017-08-20 03:00:00 19.9 19 Nordeste 23 Nordeste 0 -- -- 46
2017-08-20 02:00:00 20.8 15 Este 24 Este 0 -- -- 43
2017-08-20 01:00:00 22.1 16 Este 22 Este 0 -- -- 39
2017-08-20 00:00:00 22.9 14 Este 21 Este 0 -- -- 37
2017-08-19 23:00:00 24.5 13 Nordeste 22 Nordeste 0 -- -- 35
2017-08-19 22:00:00 25.6 13 Nordeste 18 Norte 0 -- -- 34
2017-08-19 21:00:00 29.2 15 Nordeste 22 Norte 0 -- -- 31
2017-08-19 20:00:00 31.1 14 Norte 26 Norte 0 -- -- 28
2017-08-19 19:00:00 31.7 9 Norte 26 Norte 0 -- -- 27
2017-08-19 18:00:00 31.6 11 Norte 22 Nordeste 0 -- -- 27
2017-08-19 17:00:00 31.4 5 Nordeste 21 Nordeste 0 -- -- 27
2017-08-19 16:00:00 29.9 7 Nordeste 22 Nordeste 0 -- -- 32
2017-08-19 15:00:00 29.2 17 Nordeste 29 Este 0 -- -- 36
2017-08-19 14:00:00 27.7 18 Nordeste 31 Nordeste 0 -- -- 40
2017-08-19 13:00:00 26.2 15 Nordeste 28 Este 0 -- -- 44
2017-08-19 12:00:00 24 17 Nordeste 30 Nordeste 0 -- -- 49
2017-08-19 11:00:00 22.1 17 Nordeste 27 Norte 0 -- -- 56
2017-08-19 10:00:00 19.5 17 Nordeste 25 Nordeste 0 -- -- 64
2017-08-19 09:00:00 17.4 15 Este 25 Este 0 -- -- 72
2017-08-19 08:00:00 16 11 Nordeste 24 Este 0 -- -- 77
2017-08-19 07:00:00 16.6 19 Este 27 Este 0 -- -- 75
2017-08-19 06:00:00 17.1 12 Nordeste 17 Nordeste 0 -- -- 73
2017-08-19 05:00:00 17.5 9 Nordeste 13 Nordeste 0 -- -- 70
2017-08-19 04:00:00 17.6 3 Nordeste 4 Nordeste 0 -- -- 61
2017-08-19 03:00:00 18.4 0 Calma 4 Norte 0 -- -- 52
2017-08-19 02:00:00 19.8 2 Este 6 Norte 0 -- -- 50
2017-08-19 01:00:00 21.1 3 Este 12 Noroeste 0 -- -- 46
2017-08-19 00:00:00 22.9 9 Noroeste 13 Noroeste 0 -- -- 42
2017-08-18 23:00:00 23.8 3 Norte 15 Noroeste 0 -- -- 39
2017-08-18 22:00:00 26.1 10 Noroeste 21 Noroeste 0 -- -- 35
2017-08-18 21:00:00 28.5 15 Noroeste 22 Noroeste 0 -- -- 31
2017-08-18 20:00:00 30.3 10 Oeste 26 Noroeste 0 -- -- 28
2017-08-18 19:00:00 31.2 14 Noroeste 29 Oeste 0 -- -- 28
2017-08-18 18:00:00 31.7 14 Oeste 27 Sudoeste 0 -- -- 24
2017-08-18 17:00:00 31.6 13 Oeste 27 Oeste 0 -- -- 25
2017-08-18 16:00:00 31.4 15 Oeste 25 Noroeste 0 -- -- 25
2017-08-18 15:00:00 31.1 8 Oeste 25 Oeste 0 -- -- 25
2017-08-18 14:00:00 29.6 12 Oeste 21 Sudoeste 0 -- -- 27
2017-08-18 13:00:00 28.1 6 Noroeste 21 Noroeste 0 -- -- 31
2017-08-18 12:00:00 25.4 12 Noroeste 22 Oeste 0 -- -- 42
2017-08-18 11:00:00 23.5 6 Noroeste 12 Oeste 0 -- -- 47
2017-08-18 10:00:00 20 3 Oeste 9 Norte 0 -- -- 59
2017-08-18 09:00:00 17.4 4 Noroeste 12 Sur 0 -- -- 65
2017-08-18 08:00:00 15.8 5 Sur 17 Sur 0 -- -- 70
2017-08-18 07:00:00 16.3 8 Sur 10 Sur 0 -- -- 69
2017-08-18 06:00:00 17.3 5 Sudoeste 9 Sur 0 -- -- 67
2017-08-18 05:00:00 18.1 6 Sudoeste 11 Sudoeste 0 -- -- 63
2017-08-18 04:00:00 19.2 8 Sudoeste 12 Sudoeste 0 -- -- 57
2017-08-18 03:00:00 20.3 7 Sudoeste 12 Sur 0 -- -- 53
2017-08-18 02:00:00 21.2 6 Sudoeste 12 Sudoeste 0 -- -- 50
2017-08-18 01:00:00 22.2 6 Sudoeste 10 Sudoeste 0 -- -- 47
2017-08-18 00:00:00 23.4 5 Sudoeste 14 Noroeste 0 -- -- 40
2017-08-17 23:00:00 24.8 5 Oeste 10 Oeste 0 -- -- 37
2017-08-17 22:00:00 27 6 Oeste 15 Noroeste 0 -- -- 33
2017-08-17 21:00:00 30.9 13 Oeste 23 Oeste 0 -- -- 28
2017-08-17 20:00:00 32.8 14 Noroeste 26 Oeste 0 -- -- 26
2017-08-17 19:00:00 33.4 11 Noroeste 22 Oeste 0 -- -- 25
2017-08-17 18:00:00 33.3 9 Noroeste 25 Noroeste 0 -- -- 26
2017-08-17 17:00:00 32.8 10 Oeste 24 Oeste 0 -- -- 27
2017-08-17 16:00:00 32.5 11 Noroeste 26 Oeste 0 -- -- 27
2017-08-17 15:00:00 32 6 Noroeste 22 Oeste 0 -- -- 28
2017-08-17 14:00:00 30.4 5 Oeste 15 Noroeste 0 -- -- 31
2017-08-17 13:00:00 28.2 5 Noroeste 17 Oeste 0 -- -- 38
2017-08-17 12:00:00 25.6 6 Noroeste 13 Oeste 0 -- -- 46
2017-08-17 11:00:00 23.2 6 Noroeste 11 Noroeste 0 -- -- 52
2017-08-17 10:00:00 20.7 5 Noroeste 13 Oeste 0 -- -- 59
2017-08-17 09:00:00 18.4 0 Calma 6 Sur 0 -- -- 63
2017-08-17 08:00:00 15.9 4 Sur 8 Sur 0 -- -- 70
2017-08-17 07:00:00 17.1 7 Sudoeste 10 Sudoeste 0 -- -- 68
2017-08-17 06:00:00 16.7 6 Sudoeste 8 Sudoeste 0 -- -- 67
2017-08-17 05:00:00 16.7 0 Calma 9 Sudoeste 0 -- -- 58
2017-08-17 04:00:00 19 8 Sudoeste 11 Sudoeste 0 -- -- 56
2017-08-17 03:00:00 19.4 6 Sudoeste 10 Sur 0 -- -- 53
2017-08-17 02:00:00 19.9 6 Sudoeste 9 Sudoeste 0 -- -- 48
2017-08-17 01:00:00 20.1 4 Sur 9 Sudeste 0 -- -- 43
2017-08-17 00:00:00 21.8 3 Oeste 7 Oeste 0 -- -- 39
2017-08-16 23:00:00 23.1 3 Oeste 6 Oeste 0 -- -- 36
2017-08-16 22:00:00 25 4 Oeste 13 Noroeste 0 -- -- 32
2017-08-16 21:00:00 28.9 12 Noroeste 22 Noroeste 0 -- -- 25
2017-08-16 20:00:00 30.5 13 Noroeste 22 Noroeste 0 -- -- 23
2017-08-16 19:00:00 31.1 8 Oeste 20 Noroeste 0 -- -- 21
2017-08-16 18:00:00 31.3 10 Noroeste 20 Noroeste 0 -- -- 20
2017-08-16 17:00:00 30.2 9 Noroeste 21 Noroeste 0 -- -- 20
2017-08-16 16:00:00 29.4 12 Noroeste 21 Noroeste 0 -- -- 21
2017-08-16 15:00:00 28.4 6 Norte 19 Noroeste 0 -- -- 23
2017-08-16 14:00:00 26.8 5 Noroeste 14 Norte 0 -- -- 27
2017-08-16 13:00:00 24.6 5 Oeste 15 Noroeste 0 -- -- 36
2017-08-16 12:00:00 22.9 4 Noroeste 10 Nordeste 0 -- -- 39
2017-08-16 11:00:00 20.1 4 Noroeste 12 Noroeste 0 -- -- 46
2017-08-16 10:00:00 18.2 5 Oeste 8 Noroeste 0 -- -- 50
2017-08-16 09:00:00 16.1 4 Sudoeste 6 Sur 0 -- -- 57
2017-08-16 08:00:00 13.2 5 Sur 9 Sur 0 -- -- 69
2017-08-16 07:00:00 14.1 7 Sudoeste 9 Sudoeste 0 -- -- 67
2017-08-16 06:00:00 14.9 6 Sudoeste 11 Sudoeste 0 -- -- 66
2017-08-16 05:00:00 15.5 5 Sudoeste 12 Sudoeste 0 -- -- 63
2017-08-16 04:00:00 16.4 6 Sudoeste 9 Sudoeste 0 -- -- 62
2017-08-16 03:00:00 17.3 5 Sudoeste 9 Sudoeste 0 -- -- 61
2017-08-16 02:00:00 18.4 7 Sur 9 Sur 0 -- -- 59
2017-08-16 01:00:00 19.5 6 Sudoeste 15 Oeste 0 -- -- 56
2017-08-16 00:00:00 21.2 12 Oeste 19 Oeste 0 -- -- 52
2017-08-15 23:00:00 22.7 10 Oeste 21 Noroeste 0 -- -- 45
2017-08-15 22:00:00 23.7 8 Oeste 23 Noroeste 0 -- -- 35
2017-08-15 21:00:00 26.4 15 Noroeste 26 Oeste 0 -- -- 29
2017-08-15 20:00:00 28.9 19 Noroeste 35 Oeste 0 -- -- 22
2017-08-15 19:00:00 29.8 15 Oeste 31 Oeste 0 -- -- 22
2017-08-15 18:00:00 30 19 Oeste 50 Oeste 0 -- -- 21
2017-08-15 17:00:00 29.6 21 Oeste 40 Oeste 0 -- -- 23
2017-08-15 16:00:00 29.6 18 Oeste 34 Oeste 0 -- -- 23
2017-08-15 15:00:00 27.8 17 Oeste 28 Oeste 0 -- -- 29
2017-08-15 14:00:00 27.6 14 Oeste 26 Sudoeste 0 -- -- 30
2017-08-15 13:00:00 27 14 Oeste 23 Oeste 0 -- -- 31
2017-08-15 12:00:00 24.7 12 Oeste 21 Oeste 0 -- -- 37
2017-08-15 11:00:00 21.7 10 Oeste 18 Sudoeste 0 -- -- 49
2017-08-15 10:00:00 19.9 8 Sudoeste 14 Sudoeste 0 -- -- 56
2017-08-15 09:00:00 17 9 Sudoeste 14 Sudoeste 0 -- -- 68
2017-08-15 08:00:00 15.5 7 Sudoeste 11 Sudoeste 0 -- -- 74
2017-08-15 07:00:00 14.9 4 Sudoeste 7 Sudoeste 0 -- -- 73
2017-08-15 06:00:00 16.2 2 Sur 10 Sur 0 -- -- 67
2017-08-15 05:00:00 17.4 6 Sur 10 Sur 0 -- -- 64
2017-08-15 04:00:00 18.7 6 Sudoeste 13 Sur 0 -- -- 60
2017-08-15 03:00:00 19 9 Sur 15 Sur 0 -- -- 59
2017-08-15 02:00:00 20 10 Sudoeste 14 Sur 0 -- -- 52
2017-08-15 01:00:00 21.8 9 Sudoeste 15 Sudoeste 0 -- -- 47
2017-08-15 00:00:00 23.2 9 Sudoeste 14 Sur 0 -- -- 40
2017-08-14 23:00:00 24.5 7 Sudoeste 14 Oeste 0 -- -- 35
2017-08-14 22:00:00 26.5 8 Oeste 21 Oeste 0 -- -- 31
2017-08-14 21:00:00 29.2 8 Oeste 26 Sudoeste 0 -- -- 27
2017-08-14 20:00:00 31.6 15 Sudoeste 29 Sudoeste 0 -- -- 24
2017-08-14 19:00:00 32.9 20 Sudoeste 41 Sudoeste 0 -- -- 22
2017-08-14 18:00:00 33.6 21 Sudoeste 37 Sudoeste 0 -- -- 22
2017-08-14 17:00:00 33.7 23 Oeste 41 Sudoeste 0 -- -- 22
2017-08-14 16:00:00 33.5 21 Sudoeste 40 Sudoeste 0 -- -- 22
2017-08-14 15:00:00 32.6 16 Sudoeste 39 Oeste 0 -- -- 23
2017-08-14 14:00:00 32.2 18 Oeste 30 Oeste 0 -- -- 22
2017-08-14 13:00:00 32.3 12 Oeste 22 Oeste 0 -- -- 21
2017-08-14 12:00:00 30.5 11 Sudoeste 20 Oeste 0 -- -- 25
2017-08-14 11:00:00 28.8 4 Sudoeste 8 Noroeste 0 -- -- 30
2017-08-14 10:00:00 24.9 2 Noroeste 9 Sudeste 0 -- -- 38
2017-08-14 09:00:00 20 8 Sudeste 15 Sudeste 0 -- -- 46
2017-08-14 08:00:00 16.8 4 Sudeste 13 Este 0 -- -- 53
2017-08-14 07:00:00 16 2 Nordeste 12 Sudeste 0 -- -- 52
2017-08-14 06:00:00 18 10 Sudeste 13 Sudeste 0 -- -- 50
2017-08-14 05:00:00 18.8 5 Sur 11 Sur 0 -- -- 45
2017-08-14 04:00:00 19.6 6 Sur 13 Sur 0 -- -- 43
2017-08-14 03:00:00 20.4 9 Sur 17 Sur 0 -- -- 41
2017-08-14 02:00:00 19.9 8 Sur 11 Sudeste 0 -- -- 37
2017-08-14 01:00:00 22.3 7 Sudoeste 10 Sudoeste 0 -- -- 33
2017-08-14 00:00:00 23.3 8 Sudoeste 13 Sur 0 -- -- 29
2017-08-13 23:00:00 23 3 Sur 9 Sur 0 -- -- 27
2017-08-13 22:00:00 26.6 5 Sudoeste 23 Oeste 0 -- -- 24
2017-08-13 21:00:00 30.5 12 Sudoeste 21 Sudoeste 0 -- -- 20
2017-08-13 20:00:00 32.9 5 Oeste 22 Sudoeste 0 -- -- 16
2017-08-13 19:00:00 33.2 12 Oeste 26 Noroeste 0 -- -- 16
2017-08-13 18:00:00 33.4 11 Oeste 25 Oeste 0 -- -- 16
2017-08-13 17:00:00 33.1 8 Noroeste 24 Sudoeste 0 -- -- 17
2017-08-13 16:00:00 32.7 13 Oeste 21 Sur 0 -- -- 17
2017-08-13 15:00:00 31.7 11 Sudoeste 21 Sudoeste 0 -- -- 19
2017-08-13 14:00:00 31.2 6 Norte 24 Noroeste 0 -- -- 19
2017-08-13 13:00:00 29.7 4 Oeste 19 Norte 0 -- -- 23
2017-08-13 12:00:00 26.8 10 Nordeste 19 Nordeste 0 -- -- 28
2017-08-13 11:00:00 23.8 12 Nordeste 17 Norte 0 -- -- 34
2017-08-13 10:00:00 20.6 14 Nordeste 27 Este 0 -- -- 39
2017-08-13 09:00:00 17.5 16 Este 23 Nordeste 0 -- -- 43
2017-08-13 08:00:00 15.2 12 Este 19 Este 0 -- -- 44
2017-08-13 07:00:00 15 13 Este 17 Este 0 -- -- 42
2017-08-13 06:00:00 14.5 5 Este 10 Nordeste 0 -- -- 43
2017-08-13 05:00:00 14.2 6 Nordeste 20 Norte 0 -- -- 43
2017-08-13 04:00:00 15.2 8 Sudeste 22 Norte 0 -- -- 41
2017-08-13 03:00:00 16.4 0 Calma 14 Sudeste 0 -- -- 37
2017-08-13 02:00:00 19.9 7 Sudeste 19 Sudeste 0 -- -- 30
2017-08-13 01:00:00 20.3 8 Sudeste 15 Sudeste 0 -- -- 30
2017-08-13 00:00:00 21.1 8 Sudeste 13 Este 0 -- -- 29
2017-08-12 23:00:00 22.7 9 Sudeste 14 Este 0 -- -- 27
2017-08-12 22:00:00 24.5 9 Este 12 Este 0 -- -- 24
2017-08-12 21:00:00 27.1 8 Norte 12 Norte 0 -- -- 21
2017-08-12 20:00:00 31 5 Oeste 21 Norte 0 -- -- 17
2017-08-12 19:00:00 31.2 5 Noroeste 19 Norte 0 -- -- 16
2017-08-12 18:00:00 30.9 10 Norte 34 Nordeste 0 -- -- 16
2017-08-12 17:00:00 30.6 13 Norte 22 Norte 0 -- -- 15
2017-08-12 16:00:00 30.4 12 Nordeste 22 Nordeste 0 -- -- 16
2017-08-12 15:00:00 29.6 5 Oeste 21 Nordeste 0 -- -- 17
2017-08-12 14:00:00 28.7 6 Este 24 Este 0 -- -- 19
2017-08-12 13:00:00 27.4 11 Nordeste 30 Este 0 -- -- 22
2017-08-12 12:00:00 25.6 14 Nordeste 23 Nordeste 0 -- -- 25
2017-08-12 11:00:00 22.1 14 Nordeste 24 Este 0 -- -- 32
2017-08-12 10:00:00 18 17 Este 27 Este 0 -- -- 39
2017-08-12 09:00:00 15.4 13 Este 21 Este 0 -- -- 45
2017-08-12 08:00:00 12 5 Este 17 Este 0 -- -- 47
2017-08-12 07:00:00 11.1 8 Sudeste 13 Este 0 -- -- 47
2017-08-12 06:00:00 12.6 8 Este 12 Este 0 -- -- 43
2017-08-12 05:00:00 12.4 9 Este 11 Este 0 -- -- 42
2017-08-12 04:00:00 13 7 Este 10 Este 0 -- -- 40
2017-08-12 03:00:00 12.5 4 Este 7 Sudeste 0 -- -- 40
2017-08-12 02:00:00 14 0 Calma 10 Este 0 -- -- 37
2017-08-12 01:00:00 17.4 7 Sudeste 13 Este 0 -- -- 30
2017-08-12 00:00:00 17.5 6 Sudeste 12 Este 0 -- -- 30
2017-08-11 23:00:00 18.8 10 Este 12 Este 0 -- -- 29
2017-08-11 22:00:00 20.9 8 Nordeste 15 Nordeste 0 -- -- 25
2017-08-11 21:00:00 25.4 13 Nordeste 21 Nordeste 0 -- -- 21
2017-08-11 20:00:00 26.8 12 Nordeste 33 Este 0 -- -- 20
2017-08-11 19:00:00 27.2 13 Nordeste 23 Norte 0 -- -- 20
2017-08-11 18:00:00 27.2 19 Nordeste 31 Nordeste 0 -- -- 21
2017-08-11 17:00:00 26.5 11 Nordeste 27 Nordeste 0 -- -- 21
2017-08-11 16:00:00 25.8 14 Norte 23 Norte 0 -- -- 21
2017-08-11 15:00:00 25.1 12 Nordeste 28 Este 0 -- -- 25
2017-08-11 14:00:00 24.4 13 Nordeste 28 Nordeste 0 -- -- 28
2017-08-11 13:00:00 23.3 17 Nordeste 27 Nordeste 0 -- -- 30
2017-08-11 12:00:00 21.6 15 Nordeste 25 Este 0 -- -- 32
2017-08-11 11:00:00 18.6 18 Este 30 Este 0 -- -- 40
2017-08-11 10:00:00 15.2 21 Este 37 Este 0 -- -- 52
2017-08-11 09:00:00 12.2 15 Este 22 Este 0 -- -- 61
2017-08-11 08:00:00 10.3 7 Este 21 Este 0 -- -- 68
2017-08-11 07:00:00 11 15 Este 28 Este 0 -- -- 66
2017-08-11 06:00:00 11.5 15 Este 24 Este 0 -- -- 64
2017-08-11 05:00:00 12.4 17 Este 26 Este 0 -- -- 60
2017-08-11 04:00:00 13.2 19 Este 26 Este 0 -- -- 54
2017-08-11 03:00:00 12.8 13 Este 17 Este 0 -- -- 52
2017-08-11 02:00:00 13.7 9 Este 12 Nordeste 0 -- -- 49
2017-08-11 01:00:00 15.1 9 Este 13 Este 0 -- -- 45
2017-08-11 00:00:00 16.1 10 Este 16 Este 0 -- -- 42
2017-08-10 23:00:00 17.7 12 Este 15 Este 0 -- -- 37
2017-08-10 22:00:00 19.7 9 Nordeste 23 Nordeste 0 -- -- 33
2017-08-10 21:00:00 22.9 17 Nordeste 28 Nordeste 0 -- -- 28
2017-08-10 20:00:00 24 18 Nordeste 29 Este 0 -- -- 27
2017-08-10 19:00:00 24.1 19 Nordeste 33 Nordeste 0 -- -- 29
2017-08-10 18:00:00 24.1 18 Nordeste 34 Nordeste 0 -- -- 29
2017-08-10 17:00:00 23.5 19 Nordeste 43 Nordeste 0 -- -- 30
2017-08-10 16:00:00 22.9 20 Este 32 Este 0 -- -- 33
2017-08-10 15:00:00 21.6 20 Este 40 Este 0 -- -- 35
2017-08-10 14:00:00 20.4 24 Nordeste 48 Nordeste 0 -- -- 38
2017-08-10 13:00:00 19 27 Este 44 Este 0 -- -- 42
2017-08-10 12:00:00 17.4 31 Nordeste 47 Este 0 -- -- 46
2017-08-10 11:00:00 15.9 33 Este 48 Nordeste 0 -- -- 48
2017-08-10 10:00:00 14 27 Este 39 Este 0 -- -- 56
2017-08-10 09:00:00 10.7 23 Este 31 Este 0 -- -- 66
2017-08-10 08:00:00 8.4 13 Este 20 Este 0 -- -- 73
2017-08-10 07:00:00 8.4 12 Nordeste 21 Este 0 -- -- 72
2017-08-10 06:00:00 9.6 15 Este 40 Este 0 -- -- 67
2017-08-10 05:00:00 10.4 20 Este 31 Este 0 -- -- 65
2017-08-10 04:00:00 11.2 20 Este 36 Este 0 -- -- 61
2017-08-10 03:00:00 12.1 23 Este 45 Este 0 -- -- 56
2017-08-10 02:00:00 13.2 31 Nordeste 52 Nordeste 0 -- -- 52
2017-08-10 01:00:00 14.2 28 Nordeste 44 Nordeste 0 -- -- 51
2017-08-10 00:00:00 15.2 30 Nordeste 43 Nordeste 0 -- -- 46
2017-08-09 23:00:00 16.6 27 Nordeste 40 Nordeste 0 -- -- 42
2017-08-09 22:00:00 17.7 19 Nordeste 34 Nordeste 0 -- -- 32
2017-08-09 21:00:00 19.8 28 Nordeste 39 Nordeste 0 -- -- 29
2017-08-09 20:00:00 21.4 28 Nordeste 41 Nordeste 0 -- -- 23
2017-08-09 19:00:00 22.4 28 Norte 40 Nordeste 0 -- -- 22
2017-08-09 18:00:00 22.9 24 Nordeste 43 Nordeste 0 -- -- 26
2017-08-09 17:00:00 22.8 21 Nordeste 42 Nordeste 0 -- -- 28
2017-08-09 16:00:00 22.7 26 Nordeste 42 Norte 0 -- -- 30
2017-08-09 15:00:00 21.9 18 Nordeste 39 Nordeste 0 -- -- 32
2017-08-09 14:00:00 20.5 23 Norte 35 Norte 0 -- -- 36
2017-08-09 13:00:00 19.4 18 Nordeste 33 Nordeste 0 -- -- 43
2017-08-09 12:00:00 17.7 24 Nordeste 36 Nordeste 0 -- -- 51
2017-08-09 11:00:00 16.3 24 Nordeste 36 Nordeste 0 -- -- 57
2017-08-09 10:00:00 14.2 18 Nordeste 38 Nordeste 0 -- -- 67
2017-08-09 09:00:00 12.1 8 Nordeste 15 Nordeste 0 -- -- 70
2017-08-09 08:00:00 8.6 3 Nordeste 4 Nordeste 0 -- -- 74
2017-08-09 07:00:00 9.1 2 Sudoeste 6 Sur 0 -- -- 70
2017-08-09 06:00:00 10.2 0 Calma 7 Sudoeste 0 -- -- 69
2017-08-09 05:00:00 11.2 5 Sudoeste 10 Sudoeste 0 -- -- 65
2017-08-09 04:00:00 12.1 5 Sudoeste 9 Sudoeste 0 -- -- 61
2017-08-09 03:00:00 12.7 7 Sudoeste 9 Sudoeste 0 -- -- 57
2017-08-09 02:00:00 13.8 3 Oeste 9 Oeste 0 -- -- 50
2017-08-09 01:00:00 15 6 Sudoeste 12 Noroeste 0 -- -- 45
2017-08-09 00:00:00 16.6 3 Noroeste 13 Noroeste 0 -- -- 37
2017-08-08 23:00:00 18.4 9 Noroeste 17 Noroeste 0 -- -- 32
2017-08-08 22:00:00 20.7 12 Noroeste 21 Noroeste 0 -- -- 29
2017-08-08 21:00:00 23.6 16 Noroeste 26 Noroeste 0 -- -- 25
2017-08-08 20:00:00 25.3 12 Oeste 19 Norte 0 -- -- 25
2017-08-08 19:00:00 25.6 6 Noroeste 25 Noroeste 0 -- -- 25
2017-08-08 18:00:00 25.2 13 Norte 22 Nordeste 0 -- -- 24
2017-08-08 17:00:00 24.6 11 Norte 22 Norte 0 -- -- 26
2017-08-08 16:00:00 23.9 10 Noroeste 26 Nordeste 0 -- -- 28
2017-08-08 15:00:00 22.9 11 Nordeste 26 Este 0 -- -- 33
2017-08-08 14:00:00 21.4 13 Nordeste 29 Este 0 -- -- 39
2017-08-08 13:00:00 20.3 21 Este 34 Nordeste 0 -- -- 44
2017-08-08 12:00:00 18.6 21 Nordeste 35 Nordeste 0 -- -- 52
2017-08-08 11:00:00 17.2 18 Nordeste 29 Nordeste 0 -- -- 55
2017-08-08 10:00:00 15.4 15 Nordeste 23 Nordeste 0 -- -- 62
2017-08-08 09:00:00 13 2 Nordeste 5 Este 0 -- -- 75
2017-08-08 08:00:00 9.4 0 Calma 2 Sudeste 0 -- -- 89
2017-08-08 07:00:00 9.3 0 Calma 4 Sur 0 -- -- 87
2017-08-08 06:00:00 10 3 Sudeste 6 Oeste 0 -- -- 88
2017-08-08 05:00:00 11.4 0 Calma 8 Oeste 0 -- -- 83
2017-08-08 04:00:00 12.3 5 Sudoeste 6 Oeste 0 -- -- 81
2017-08-08 03:00:00 13.4 3 Sur 15 Oeste 0 -- -- 76
2017-08-08 02:00:00 14.6 8 Oeste 17 Sudoeste 0 -- -- 74
2017-08-08 01:00:00 16.2 8 Sudoeste 21 Oeste 0 -- -- 67
2017-08-08 00:00:00 17 10 Oeste 23 Oeste 0 -- -- 57
2017-08-07 23:00:00 18.8 12 Oeste 24 Oeste 0 -- -- 46
2017-08-07 22:00:00 20.8 12 Oeste 31 Oeste 0 -- -- 42
2017-08-07 21:00:00 23.7 21 Oeste 38 Oeste 0 -- -- 33
2017-08-07 20:00:00 24.5 19 Oeste 35 Oeste 0 -- -- 31
2017-08-07 19:00:00 26.1 22 Oeste 36 Noroeste 0 -- -- 25
2017-08-07 18:00:00 28.3 23 Oeste 40 Oeste 0 -- -- 18
2017-08-07 17:00:00 29.7 20 Oeste 36 Oeste 0 -- -- 14
2017-08-07 16:00:00 29.9 20 Oeste 36 Sudoeste 0 -- -- 13
2017-08-07 15:00:00 29.1 19 Oeste 39 Sudoeste 0 -- -- 19
2017-08-07 14:00:00 27.3 12 Oeste 31 Oeste 0 -- -- 20
2017-08-07 13:00:00 25.6 13 Oeste 24 Oeste 0 -- -- 34
2017-08-07 12:00:00 23.9 13 Sudoeste 21 Sudoeste 0 -- -- 48
2017-08-07 11:00:00 21.7 9 Oeste 19 Oeste 0 -- -- 56
2017-08-07 10:00:00 18.8 9 Oeste 17 Oeste 0 -- -- 65
2017-08-07 09:00:00 15.3 3 Sudoeste 10 Noroeste 0 -- -- 71
2017-08-07 08:00:00 13.4 6 Sudoeste 12 Sudoeste 0 -- -- 79
2017-08-07 07:00:00 13.6 6 Sur 9 Sur 0 -- -- 78
2017-08-07 06:00:00 14.5 0 Calma 5 Sur 0 -- -- 71
2017-08-07 05:00:00 16 5 Sudeste 9 Sudeste 0 -- -- 66
2017-08-07 04:00:00 16.6 3 Este 9 Sudeste 0 -- -- 62
2017-08-07 03:00:00 19.6 4 Sudeste 12 Este 0 -- -- 54
2017-08-07 02:00:00 20.4 8 Este 12 Este 0 -- -- 52
2017-08-07 01:00:00 20.9 2 Nordeste 10 Este 0 -- -- 50
2017-08-07 00:00:00 22.6 6 Este 11 Nordeste 0 -- -- 46
2017-08-06 23:00:00 23.7 2 Nordeste 13 Norte 0 -- -- 43
2017-08-06 22:00:00 26.4 10 Norte 15 Noroeste 0 -- -- 36
2017-08-06 21:00:00 30.5 7 Noroeste 15 Noroeste 0 -- -- 29
2017-08-06 20:00:00 31.3 3 Norte 15 Oeste 0 -- -- 29
2017-08-06 19:00:00 31.2 5 Sudoeste 18 Oeste 0 -- -- 32
2017-08-06 18:00:00 30.8 6 Sudoeste 18 Oeste 0 -- -- 34
2017-08-06 17:00:00 29.5 6 Nordeste 24 Nordeste 0 -- -- 37
2017-08-06 16:00:00 28.5 14 Nordeste 32 Nordeste 0 -- -- 39
2017-08-06 15:00:00 27.9 17 Nordeste 32 Este 0 -- -- 40
2017-08-06 14:00:00 25.8 22 Nordeste 33 Nordeste 0 -- -- 46
2017-08-06 13:00:00 23.9 19 Nordeste 36 Nordeste 0 -- -- 51
2017-08-06 12:00:00 21.9 24 Nordeste 39 Nordeste 0 -- -- 55
2017-08-06 11:00:00 19.5 27 Nordeste 36 Este 0 -- -- 62
2017-08-06 10:00:00 17.7 26 Nordeste 41 Nordeste 0 -- -- 68
2017-08-06 09:00:00 16 25 Nordeste 38 Nordeste 0 -- -- 74
2017-08-06 08:00:00 14.4 18 Nordeste 27 Nordeste 0 -- -- 79
2017-08-06 07:00:00 14.3 19 Nordeste 32 Nordeste 0 -- -- 79
2017-08-06 06:00:00 14.8 19 Nordeste 33 Este 0 -- -- 76
2017-08-06 05:00:00 15.2 20 Nordeste 33 Este 0 -- -- 75
2017-08-06 04:00:00 15.8 18 Nordeste 32 Este 0 -- -- 73
2017-08-06 03:00:00 16.6 18 Nordeste 30 Nordeste 0 -- -- 71
2017-08-06 02:00:00 17.8 17 Nordeste 28 Nordeste 0 -- -- 68
2017-08-06 01:00:00 19.4 19 Nordeste 28 Nordeste 0 -- -- 63
2017-08-06 00:00:00 21.8 20 Norte 34 Norte 0 -- -- 55
2017-08-05 23:00:00 25.7 10 Noroeste 23 Noroeste 0 -- -- 41
2017-08-05 22:00:00 27.8 11 Noroeste 20 Noroeste 0 -- -- 35
2017-08-05 21:00:00 30.9 14 Noroeste 28 Oeste 0 -- -- 27
2017-08-05 20:00:00 32.1 16 Noroeste 30 Noroeste 0 -- -- 26
2017-08-05 19:00:00 33.2 15 Oeste 33 Oeste 0 -- -- 21
2017-08-05 18:00:00 33.5 17 Oeste 31 Oeste 0 -- -- 22
2017-08-05 17:00:00 33.6 14 Oeste 32 Oeste 0 -- -- 26
2017-08-05 16:00:00 32.5 10 Oeste 22 Sudoeste 0 -- -- 28
2017-08-05 15:00:00 31.8 9 Oeste 21 Oeste 0 -- -- 32
2017-08-05 14:00:00 30.2 10 Norte 19 Norte 0 -- -- 38
2017-08-05 13:00:00 28.7 9 Noroeste 18 Noroeste 0 -- -- 44
2017-08-05 12:00:00 26.8 9 Noroeste 17 Noroeste 0 -- -- 50
2017-08-05 11:00:00 24.4 8 Noroeste 13 Noroeste 0 -- -- 60
2017-08-05 10:00:00 21.9 5 Noroeste 9 Noroeste 0 -- -- 69
2017-08-05 09:00:00 20.7 2 Norte 5 Norte 0 -- -- 73
2017-08-05 08:00:00 16.1 2 Sur 8 Sudeste 0 -- -- 77
2017-08-05 07:00:00 16.2 7 Sudeste 9 Sudeste 0 -- -- 75
2017-08-05 06:00:00 16.7 0 Calma 9 Oeste 0 -- -- 73
2017-08-05 05:00:00 17.7 3 Sur 8 Sudeste 0 -- -- 68
2017-08-05 04:00:00 19.3 3 Sur 10 Sur 0 -- -- 64
2017-08-05 03:00:00 20 9 Sur 11 Sur 0 -- -- 61
2017-08-05 02:00:00 22 8 Sudoeste 13 Sudoeste 0 -- -- 57
2017-08-05 01:00:00 22.8 6 Sudoeste 9 Sudoeste 0 -- -- 47
2017-08-05 00:00:00 24.2 6 Sudoeste 15 Oeste 0 -- -- 35
2017-08-04 23:00:00 26.9 9 Oeste 21 Oeste 0 -- -- 27
2017-08-04 22:00:00 29.4 13 Noroeste 25 Noroeste 0 -- -- 25
2017-08-04 21:00:00 32.4 15 Noroeste 27 Noroeste 0 -- -- 31
2017-08-04 20:00:00 33.9 15 Noroeste 29 Oeste 0 -- -- 28
2017-08-04 19:00:00 34.3 15 Noroeste 28 Oeste 0 -- -- 25
2017-08-04 18:00:00 34.2 17 Noroeste 32 Oeste 0 -- -- 26
2017-08-04 17:00:00 34.3 13 Noroeste 27 Noroeste 0 -- -- 28
2017-08-04 16:00:00 33.6 7 Noroeste 23 Noroeste 0 -- -- 30
2017-08-04 15:00:00 32.2 5 Norte 23 Oeste 0 -- -- 35
2017-08-04 14:00:00 30.6 8 Noroeste 18 Noroeste 0 -- -- 39
2017-08-04 13:00:00 28.7 6 Sur 15 Oeste 0 -- -- 44
2017-08-04 12:00:00 27.1 6 Noroeste 11 Norte 0 -- -- 50
2017-08-04 11:00:00 25.1 6 Nordeste 13 Norte 0 -- -- 56
2017-08-04 10:00:00 23 3 Nordeste 7 Norte 0 -- -- 63
2017-08-04 09:00:00 20.5 3 Sudeste 9 Sudeste 0 -- -- 71
2017-08-04 08:00:00 17.7 5 Sur 8 Sur 0 -- -- 82
2017-08-04 07:00:00 17.2 5 Sur 9 Sur 0 -- -- 81
2017-08-04 06:00:00 17.8 6 Sur 9 Sudoeste 0 -- -- 79
2017-08-04 05:00:00 18.5 6 Sudoeste 8 Sudoeste 0 -- -- 77
2017-08-04 04:00:00 19 5 Sudoeste 9 Sudoeste 0 -- -- 74
2017-08-04 03:00:00 19.9 5 Sudoeste 10 Sudoeste 0 -- -- 71
2017-08-04 02:00:00 20.9 6 Sudoeste 10 Sudoeste 0 -- -- 66
2017-08-04 01:00:00 21.9 4 Sudoeste 18 Oeste 0 -- -- 62
2017-08-04 00:00:00 23.5 10 Oeste 18 Oeste 0 -- -- 55
2017-08-03 23:00:00 24.9 10 Oeste 16 Oeste 0 -- -- 49
2017-08-03 22:00:00 26.5 9 Oeste 24 Noroeste 0 -- -- 46
2017-08-03 21:00:00 29.3 13 Oeste 29 Oeste 0 -- -- 39
2017-08-03 20:00:00 30.3 16 Oeste 30 Oeste 0 -- -- 37
2017-08-03 19:00:00 30.8 20 Oeste 33 Oeste 0 -- -- 35
2017-08-03 18:00:00 31 18 Oeste 35 Oeste 0 -- -- 34
2017-08-03 17:00:00 30.8 18 Noroeste 32 Noroeste 0 -- -- 34
2017-08-03 16:00:00 30.3 15 Oeste 30 Oeste 0 -- -- 38
2017-08-03 15:00:00 29.6 14 Oeste 28 Oeste 0 -- -- 40
2017-08-03 14:00:00 28.1 8 Oeste 24 Oeste 0 -- -- 43
2017-08-03 13:00:00 26.9 12 Noroeste 20 Oeste 0 -- -- 43
2017-08-03 12:00:00 24.5 10 Noroeste 22 Oeste 0 -- -- 44
2017-08-03 11:00:00 22.6 7 Oeste 17 Oeste 0 -- -- 48
2017-08-03 10:00:00 20.1 4 Noroeste 9 Oeste 0 -- -- 56
2017-08-03 09:00:00 17.3 5 Sudoeste 8 Sudoeste 0 -- -- 61
2017-08-03 08:00:00 14.5 0 Calma 9 Sur 0 -- -- 63
2017-08-03 07:00:00 14.8 0 Calma 12 Sur 0 -- -- 62
2017-08-03 06:00:00 15.8 8 Sur 13 Oeste 0 -- -- 61
2017-08-03 05:00:00 15.7 7 Sur 11 Sudoeste 0 -- -- 60
2017-08-03 04:00:00 17 8 Sur 14 Sudoeste 0 -- -- 55
2017-08-03 03:00:00 17.8 8 Sudoeste 13 Sudoeste 0 -- -- 47
2017-08-03 02:00:00 19 10 Sudoeste 14 Sudoeste 0 -- -- 43
2017-08-03 01:00:00 20.6 9 Sudoeste 13 Sudoeste 0 -- -- 35
2017-08-03 00:00:00 21.6 9 Oeste 13 Oeste 0 -- -- 35
2017-08-02 23:00:00 24 9 Oeste 19 Noroeste 0 -- -- 34
2017-08-02 22:00:00 26.3 11 Oeste 20 Oeste 0 -- -- 29
2017-08-02 21:00:00 29.6 14 Oeste 24 Oeste 0 -- -- 20
2017-08-02 20:00:00 30.9 16 Noroeste 26 Oeste 0 -- -- 18
2017-08-02 19:00:00 31.7 12 Oeste 27 Sudoeste 0 -- -- 17
2017-08-02 18:00:00 31.7 12 Sudoeste 27 Sudoeste 0 -- -- 16
2017-08-02 17:00:00 31.3 16 Oeste 26 Oeste 0 -- -- 18
2017-08-02 16:00:00 30.1 8 Sudeste 22 Sudoeste 0 -- -- 20
2017-08-02 15:00:00 29.5 10 Oeste 23 Oeste 0 -- -- 22
2017-08-02 14:00:00 28.3 9 Oeste 21 Oeste 0 -- -- 26
2017-08-02 13:00:00 26.6 5 Sudoeste 15 Noroeste 0 -- -- 30
2017-08-02 12:00:00 24.5 5 Noroeste 10 Este 0 -- -- 36
2017-08-02 11:00:00 22 3 Noroeste 9 Noroeste 0 -- -- 44
2017-08-02 10:00:00 18.1 6 Norte 9 Norte 0 -- -- 55
2017-08-02 09:00:00 14.6 0 Calma 5 Noroeste 0 -- -- 61
2017-08-02 08:00:00 11.2 0 Calma 6 Oeste 0 -- -- 70
2017-08-02 07:00:00 11.4 3 Sudeste 9 Sudeste 0 -- -- 69
2017-08-02 06:00:00 12.3 6 Sudeste 9 Sudeste 0 -- -- 66
2017-08-02 05:00:00 13.1 4 Sur 7 Sudoeste 0 -- -- 68
2017-08-02 04:00:00 14.2 5 Sur 9 Sudoeste 0 -- -- 65
2017-08-02 03:00:00 15.5 6 Sur 10 Sudoeste 0 -- -- 57
2017-08-02 02:00:00 16.8 8 Sudoeste 16 Sudoeste 0 -- -- 52
2017-08-02 01:00:00 17.5 6 Sudoeste 11 Sudoeste 0 -- -- 48
2017-08-02 00:00:00 18.7 5 Sudoeste 11 Oeste 0 -- -- 43
2017-08-01 23:00:00 21 9 Oeste 19 Noroeste 0 -- -- 39
2017-08-01 22:00:00 23.3 6 Noroeste 16 Noroeste 0 -- -- 32
2017-08-01 21:00:00 25.9 10 Noroeste 22 Noroeste 0 -- -- 27
2017-08-01 20:00:00 26.9 13 Oeste 26 Oeste 0 -- -- 24
2017-08-01 19:00:00 27.6 15 Oeste 24 Sudoeste 0 -- -- 24
2017-08-01 18:00:00 27.8 10 Oeste 27 Oeste 0 -- -- 25
2017-08-01 17:00:00 27.8 13 Oeste 26 Oeste 0 -- -- 25
2017-08-01 16:00:00 26.9 9 Oeste 25 Sudoeste 0 -- -- 25
2017-08-01 15:00:00 25.6 8 Oeste 23 Oeste 0 -- -- 35
2017-08-01 14:00:00 23.4 11 Oeste 21 Sudoeste 0 -- -- 41
2017-08-01 13:00:00 21.4 7 Oeste 15 Sudoeste 0 -- -- 49
2017-08-01 12:00:00 19.6 6 Noroeste 12 Noroeste 0 -- -- 59
2017-08-01 11:00:00 17 5 Sudoeste 12 Oeste 0 -- -- 69
2017-08-01 10:00:00 14.5 8 Oeste 18 Oeste 0 -- -- 77
2017-08-01 09:00:00 12.9 9 Oeste 13 Sudoeste 0 -- -- 80
2017-08-01 08:00:00 11.5 6 Sudoeste 9 Sudoeste 0 -- -- 84
2017-08-01 07:00:00 11.6 6 Sudoeste 12 Sudoeste 0 -- -- 82
2017-08-01 06:00:00 12.1 6 Sudoeste 10 Sudoeste 0 -- -- 84
2017-08-01 05:00:00 12.8 6 Sudoeste 10 Sudoeste 0 -- -- 83
2017-08-01 04:00:00 13.9 5 Sudoeste 9 Sudoeste 0 -- -- 81
2017-08-01 03:00:00 14.9 8 Oeste 15 Oeste 0 -- -- 75
2017-08-01 02:00:00 15.6 4 Sudoeste 12 Oeste 0 -- -- 82
2017-08-01 01:00:00 16.6 6 Oeste 18 Sudoeste 0.6 -- -- 70
2017-08-01 00:00:00 18 5 Sudoeste 11 Sur 0 -- -- 52
2017-07-31 23:00:00 18.5 4 Oeste 16 Oeste 0 -- -- 50
2017-07-31 22:00:00 19.2 7 Sudoeste 12 Sudoeste 0 -- -- 49
2017-07-31 21:00:00 19.9 7 Sudoeste 16 Sudoeste 0 -- -- 47
2017-07-31 20:00:00 19.7 9 Sudoeste 16 Sudoeste 0 -- -- 47
2017-07-31 19:00:00 19 8 Oeste 23 Oeste 0 -- -- 50
2017-07-31 18:00:00 19.4 17 Oeste 35 Noroeste 0 -- -- 45
2017-07-31 17:00:00 22.3 23 Noroeste 39 Oeste 0 -- -- 33
2017-07-31 16:00:00 26.1 15 Oeste 33 Oeste 0 -- -- 31
2017-07-31 15:00:00 25.6 12 Sudoeste 30 Oeste 0 -- -- 34
2017-07-31 14:00:00 24.9 11 Oeste 23 Oeste 0 -- -- 35
2017-07-31 13:00:00 23 7 Oeste 17 Sur 0 -- -- 43
2017-07-31 12:00:00 20.9 6 Oeste 25 Oeste 0 -- -- 49
2017-07-31 11:00:00 18.5 8 Noroeste 13 Oeste 0 -- -- 59
2017-07-31 10:00:00 16.3 4 Oeste 12 Sudoeste 0 -- -- 67
2017-07-31 09:00:00 13.8 6 Sudoeste 11 Sur 0 -- -- 77
2017-07-31 08:00:00 11.8 7 Sudoeste 10 Sudoeste 0 -- -- 86
2017-07-31 07:00:00 11.8 6 Sudoeste 10 Sudoeste 0 -- -- 81
2017-07-31 06:00:00 12.7 7 Sudoeste 9 Sur 0 -- -- 79
2017-07-31 05:00:00 13.3 5 Sudoeste 10 Sudoeste 0 -- -- 77
2017-07-31 04:00:00 14.4 8 Sudoeste 10 Sudoeste 0 -- -- 73
2017-07-31 03:00:00 15.4 6 Sudoeste 10 Sudoeste 0 -- -- 69
2017-07-31 02:00:00 16.7 7 Sudoeste 13 Oeste 0 -- -- 65
2017-07-31 01:00:00 18.1 8 Sudoeste 13 Sudoeste 0 -- -- 57
2017-07-31 00:00:00 19.8 9 Oeste 18 Oeste 0 -- -- 52
2017-07-30 23:00:00 21.8 9 Oeste 21 Noroeste 0 -- -- 44
2017-07-30 22:00:00 24.3 14 Oeste 27 Oeste 0 -- -- 39
2017-07-30 21:00:00 27.6 17 Noroeste 34 Oeste 0 -- -- 32
2017-07-30 20:00:00 29.9 18 Oeste 35 Oeste 0 -- -- 24
2017-07-30 19:00:00 31 17 Oeste 33 Oeste 0 -- -- 22
2017-07-30 18:00:00 31 14 Oeste 34 Oeste 0 -- -- 23
2017-07-30 17:00:00 30.6 19 Oeste 34 Oeste 0 -- -- 23
2017-07-30 16:00:00 30 15 Oeste 33 Oeste 0 -- -- 26
2017-07-30 15:00:00 28.8 13 Oeste 28 Oeste 0 -- -- 28
2017-07-30 14:00:00 27.6 10 Oeste 25 Sudoeste 0 -- -- 30
2017-07-30 13:00:00 25.5 8 Noroeste 21 Oeste 0 -- -- 41
2017-07-30 12:00:00 23 6 Oeste 14 Oeste 0 -- -- 50
2017-07-30 11:00:00 20.5 5 Oeste 11 Noroeste 0 -- -- 59
2017-07-30 10:00:00 18.4 5 Oeste 11 Noroeste 0 -- -- 73
2017-07-30 09:00:00 16.7 5 Oeste 7 Oeste 0 -- -- 81
2017-07-30 08:00:00 15.2 3 Oeste 9 Sudoeste 0 -- -- 88
2017-07-30 07:00:00 15.4 5 Sudoeste 10 Sur 0 -- -- 89
2017-07-30 06:00:00 15.7 3 Sur 11 Oeste 0 -- -- 83
2017-07-30 05:00:00 16.7 7 Oeste 13 Oeste 0 -- -- 81
2017-07-30 04:00:00 17.4 6 Oeste 12 Sudoeste 0 -- -- 75
2017-07-30 03:00:00 18.8 6 Sudoeste 16 Oeste 0 -- -- 64
2017-07-30 02:00:00 20.2 10 Oeste 17 Oeste 0 -- -- 60
2017-07-30 01:00:00 21.4 6 Oeste 17 Oeste 0 -- -- 53
2017-07-30 00:00:00 23.1 9 Oeste 17 Noroeste 0 -- -- 45
2017-07-29 23:00:00 25.4 11 Oeste 25 Noroeste 0 -- -- 45
2017-07-29 22:00:00 27.5 14 Oeste 30 Oeste 0 -- -- 37
2017-07-29 21:00:00 30.1 19 Oeste 33 Oeste 0 -- -- 30
2017-07-29 20:00:00 31.8 17 Oeste 36 Sudoeste 0 -- -- 24
2017-07-29 19:00:00 32.5 18 Sudoeste 33 Oeste 0 -- -- 24
2017-07-29 18:00:00 32.4 14 Oeste 32 Sudoeste 0 -- -- 23
2017-07-29 17:00:00 32 16 Oeste 31 Noroeste 0 -- -- 24
2017-07-29 16:00:00 31.2 16 Oeste 32 Oeste 0 -- -- 26
2017-07-29 15:00:00 30.2 10 Sudoeste 28 Oeste 0 -- -- 30
2017-07-29 14:00:00 28.1 10 Sudoeste 23 Sudoeste 0 -- -- 36
2017-07-29 13:00:00 26.2 10 Oeste 24 Oeste 0 -- -- 43
2017-07-29 12:00:00 24 9 Oeste 21 Noroeste 0 -- -- 54
2017-07-29 11:00:00 22.4 10 Oeste 18 Oeste 0 -- -- 62
2017-07-29 10:00:00 20.5 10 Oeste 17 Oeste 0 -- -- 70
2017-07-29 09:00:00 18.6 7 Sudoeste 13 Sudoeste 0 -- -- 75
2017-07-29 08:00:00 17 5 Sudoeste 9 Sudoeste 0 -- -- 80
2017-07-29 07:00:00 16.2 6 Sudoeste 8 Sudoeste 0 -- -- 79
2017-07-29 06:00:00 16.9 5 Sur 10 Sur 0 -- -- 75
2017-07-29 05:00:00 17.6 6 Sudoeste 12 Sudoeste 0 -- -- 71
2017-07-29 04:00:00 18.3 6 Sudoeste 10 Sudoeste 0 -- -- 64
2017-07-29 03:00:00 19.3 8 Sudoeste 12 Sudoeste 0 -- -- 60
2017-07-29 02:00:00 20.1 6 Sudoeste 13 Sudoeste 0 -- -- 55
2017-07-29 01:00:00 21.3 8 Sudoeste 15 Oeste 0 -- -- 41
2017-07-29 00:00:00 22.7 9 Sudoeste 18 Sudoeste 0 -- -- 30
2017-07-28 23:00:00 24 8 Oeste 21 Oeste 0 -- -- 24
2017-07-28 22:00:00 27.1 13 Oeste 27 Oeste 0 -- -- 23
2017-07-28 21:00:00 30.5 17 Oeste 30 Oeste 0 -- -- 20
2017-07-28 20:00:00 32.1 18 Oeste 30 Oeste 0 -- -- 29
2017-07-28 19:00:00 32.6 15 Oeste 29 Oeste 0 -- -- 29
2017-07-28 18:00:00 32.4 14 Oeste 32 Oeste 0 -- -- 29
2017-07-28 17:00:00 32.2 15 Oeste 33 Oeste 0 -- -- 30
2017-07-28 16:00:00 31.5 14 Oeste 26 Oeste 0 -- -- 32
2017-07-28 15:00:00 30.8 13 Oeste 27 Sudoeste 0 -- -- 34
2017-07-28 14:00:00 29.2 9 Sudoeste 19 Sudoeste 0 -- -- 36
2017-07-28 13:00:00 27.5 7 Oeste 17 Oeste 0 -- -- 37
2017-07-28 12:00:00 25.6 4 Noroeste 12 Noroeste 0 -- -- 40
2017-07-28 11:00:00 23.6 4 Oeste 12 Oeste 0 -- -- 41
2017-07-28 10:00:00 21.3 4 Oeste 9 Oeste 0 -- -- 64
2017-07-28 09:00:00 18.8 3 Sudoeste 9 Sudeste 0 -- -- 72
2017-07-28 08:00:00 15.4 6 Sudeste 9 Sudeste 0 -- -- 76
2017-07-28 07:00:00 14.8 4 Sur 8 Sudoeste 0 -- -- 78
2017-07-28 06:00:00 15.3 6 Sur 13 Sudeste 0 -- -- 74
2017-07-28 05:00:00 16.6 4 Sur 10 Sudoeste 0 -- -- 68
2017-07-28 04:00:00 17.8 5 Sudoeste 10 Sudoeste 0 -- -- 66
2017-07-28 03:00:00 18.7 7 Sudoeste 12 Sudoeste 0 -- -- 63
2017-07-28 02:00:00 19.9 8 Sudoeste 12 Oeste 0 -- -- 58
2017-07-28 01:00:00 21.2 10 Sudoeste 15 Oeste 0 -- -- 52
2017-07-28 00:00:00 22.2 8 Oeste 14 Oeste 0 -- -- 45
2017-07-27 23:00:00 24.9 7 Oeste 19 Oeste 0 -- -- 31
2017-07-27 22:00:00 27.3 10 Oeste 23 Oeste 0 -- -- 27
2017-07-27 21:00:00 30.9 17 Noroeste 25 Noroeste 0 -- -- 20
2017-07-27 20:00:00 32.6 14 Oeste 27 Noroeste 0 -- -- 18
2017-07-27 19:00:00 33.3 16 Noroeste 30 Oeste 0 -- -- 17
2017-07-27 18:00:00 33.6 15 Oeste 31 Oeste 0 -- -- 15
2017-07-27 17:00:00 33.4 16 Oeste 31 Oeste 0 -- -- 15
2017-07-27 16:00:00 32.9 16 Sudoeste 28 Sudoeste 0 -- -- 16
2017-07-27 15:00:00 31.7 14 Oeste 36 Sudoeste 0 -- -- 22
2017-07-27 14:00:00 30.2 10 Oeste 21 Oeste 0 -- -- 25
2017-07-27 13:00:00 28.4 10 Noroeste 20 Oeste 0 -- -- 28
2017-07-27 12:00:00 26.4 7 Noroeste 15 Oeste 0 -- -- 33
2017-07-27 11:00:00 24.3 6 Noroeste 13 Noroeste 0 -- -- 39
2017-07-27 10:00:00 22.2 5 Oeste 11 Oeste 0 -- -- 43
2017-07-27 09:00:00 19.9 5 Sudoeste 9 Sudoeste 0 -- -- 47
2017-07-27 08:00:00 15.8 0 Calma 8 Sur 0 -- -- 59
2017-07-27 07:00:00 16.3 8 Sudeste 10 Sudeste 0 -- -- 56
2017-07-27 06:00:00 17.8 6 Sudoeste 8 Sur 0 -- -- 53
2017-07-27 05:00:00 18.6 6 Sur 10 Sur 0 -- -- 51
2017-07-27 04:00:00 18.3 5 Sur 9 Sur 0 -- -- 50
2017-07-27 03:00:00 19.2 5 Sur 10 Sudoeste 0 -- -- 46
2017-07-27 02:00:00 20.5 7 Sudoeste 9 Sudoeste 0 -- -- 41
2017-07-27 01:00:00 20.8 4 Sudoeste 9 Oeste 0 -- -- 36
2017-07-27 00:00:00 22.1 5 Oeste 15 Oeste 0 -- -- 30
2017-07-26 23:00:00 22.5 0 Calma 6 Noroeste 0 -- -- 27
2017-07-26 22:00:00 26.9 6 Noroeste 18 Noroeste 0 -- -- 22
2017-07-26 21:00:00 30.5 13 Noroeste 24 Oeste 0 -- -- 20
2017-07-26 20:00:00 31.7 14 Oeste 24 Noroeste 0 -- -- 21
2017-07-26 19:00:00 32.2 10 Oeste 26 Oeste 0 -- -- 21
2017-07-26 18:00:00 32.5 13 Noroeste 23 Norte 0 -- -- 23
2017-07-26 17:00:00 32 12 Oeste 24 Noroeste 0 -- -- 24
2017-07-26 16:00:00 31.1 8 Oeste 23 Oeste 0 -- -- 25
2017-07-26 15:00:00 29.9 9 Oeste 19 Norte 0 -- -- 28
2017-07-26 14:00:00 29.2 4 Noroeste 18 Noroeste 0 -- -- 30
2017-07-26 13:00:00 27.9 8 Noroeste 19 Nordeste 0 -- -- 31
2017-07-26 12:00:00 26.6 11 Nordeste 22 Nordeste 0 -- -- 33
2017-07-26 11:00:00 24.9 10 Nordeste 22 Este 0 -- -- 36
2017-07-26 10:00:00 21.8 15 Este 21 Nordeste 0 -- -- 43
2017-07-26 09:00:00 17.9 13 Nordeste 18 Nordeste 0 -- -- 50
2017-07-26 08:00:00 15.7 12 Este 15 Este 0 -- -- 56
2017-07-26 07:00:00 14.9 10 Este 17 Este 0 -- -- 58
2017-07-26 06:00:00 15.8 9 Este 15 Este 0 -- -- 55
2017-07-26 05:00:00 16.5 11 Este 18 Este 0 -- -- 53
2017-07-26 04:00:00 16.9 10 Este 16 Este 0 -- -- 51
2017-07-26 03:00:00 16.9 10 Este 14 Nordeste 0 -- -- 50
2017-07-26 02:00:00 17.4 6 Este 9 Nordeste 0 -- -- 48
2017-07-26 01:00:00 19.3 2 Este 12 Este 0 -- -- 43
2017-07-26 00:00:00 21.1 10 Este 14 Este 0 -- -- 39
2017-07-25 23:00:00 21.8 11 Este 13 Este 0 -- -- 38
2017-07-25 22:00:00 23.7 10 Nordeste 22 Nordeste 0 -- -- 34
2017-07-25 21:00:00 26.9 19 Nordeste 30 Norte 0 -- -- 28
2017-07-25 20:00:00 27.9 15 Norte 39 Nordeste 0 -- -- 25
2017-07-25 19:00:00 28.8 17 Norte 28 Norte 0 -- -- 24
2017-07-25 18:00:00 28.2 16 Nordeste 35 Norte 0 -- -- 25
2017-07-25 17:00:00 28 16 Norte 26 Nordeste 0 -- -- 24
2017-07-25 16:00:00 27.5 16 Nordeste 29 Nordeste 0 -- -- 25
2017-07-25 15:00:00 27 17 Nordeste 27 Nordeste 0 -- -- 27
2017-07-25 14:00:00 25.2 15 Nordeste 33 Nordeste 0 -- -- 31
2017-07-25 13:00:00 23.7 19 Nordeste 32 Nordeste 0 -- -- 36
2017-07-25 12:00:00 22.2 19 Nordeste 35 Este 0 -- -- 44
2017-07-25 11:00:00 20.5 18 Nordeste 27 Este 0 -- -- 50
2017-07-25 10:00:00 18.1 17 Nordeste 30 Este 0 -- -- 58
2017-07-25 09:00:00 15.5 19 Nordeste 27 Nordeste 0 -- -- 68
2017-07-25 08:00:00 13.9 13 Nordeste 18 Este 0 -- -- 74
2017-07-25 07:00:00 13.7 10 Nordeste 19 Nordeste 0 -- -- 75
2017-07-25 06:00:00 14.4 8 Nordeste 15 Nordeste 0 -- -- 72
2017-07-25 05:00:00 15.7 8 Nordeste 25 Este 0 -- -- 67
2017-07-25 04:00:00 16.9 18 Este 35 Nordeste 0 -- -- 63
2017-07-25 03:00:00 18.2 24 Nordeste 37 Nordeste 0 -- -- 59
2017-07-25 02:00:00 20.1 21 Nordeste 27 Nordeste 0 -- -- 51
2017-07-25 01:00:00 21.2 19 Nordeste 28 Nordeste 0 -- -- 45
2017-07-25 00:00:00 20.9 6 Noroeste 11 Noroeste 0 -- -- 46
2017-07-24 23:00:00 22.5 7 Noroeste 11 Noroeste 0 -- -- 42
2017-07-24 22:00:00 25.2 10 Noroeste 25 Noroeste 0 -- -- 36
2017-07-24 21:00:00 28.5 18 Noroeste 26 Noroeste 0 -- -- 30
2017-07-24 20:00:00 29.7 12 Noroeste 24 Noroeste 0 -- -- 28
2017-07-24 19:00:00 30.2 13 Noroeste 26 Noroeste 0 -- -- 28
2017-07-24 18:00:00 29.8 11 Norte 26 Norte 0 -- -- 26
2017-07-24 17:00:00 29.1 10 Noroeste 27 Norte 0 -- -- 26
2017-07-24 16:00:00 28.6 12 Noroeste 28 Norte 0 -- -- 30
2017-07-24 15:00:00 27.4 10 Nordeste 24 Norte 0 -- -- 33
2017-07-24 14:00:00 26.4 17 Nordeste 28 Nordeste 0 -- -- 38
2017-07-24 13:00:00 24.7 9 Nordeste 26 Noroeste 0 -- -- 46
2017-07-24 12:00:00 23.4 13 Nordeste 24 Este 0 -- -- 49
2017-07-24 11:00:00 21.5 13 Nordeste 22 Nordeste 0 -- -- 57
2017-07-24 10:00:00 19.3 11 Norte 17 Norte 0 -- -- 68
2017-07-24 09:00:00 17 6 Norte 10 Norte 0 -- -- 77
2017-07-24 08:00:00 14.8 2 Nordeste 4 Este 0 -- -- 85
2017-07-24 07:00:00 13.4 0 Calma 4 Noroeste 0 -- -- 85
2017-07-24 06:00:00 14.4 0 Calma 5 Noroeste 0 -- -- 81
2017-07-24 05:00:00 15.9 0 Calma 13 Noroeste 0 -- -- 76
2017-07-24 04:00:00 17.2 3 Noroeste 14 Oeste 0 -- -- 74
2017-07-24 03:00:00 18 7 Noroeste 15 Noroeste 0 -- -- 71
2017-07-24 02:00:00 19.6 11 Noroeste 17 Noroeste 0 -- -- 66
2017-07-24 01:00:00 20.7 11 Noroeste 27 Noroeste 0 -- -- 61
2017-07-24 00:00:00 21.9 14 Noroeste 27 Noroeste 0 -- -- 54
2017-07-23 23:00:00 23.1 18 Noroeste 30 Oeste 0 -- -- 49
2017-07-23 22:00:00 24.8 21 Noroeste 34 Noroeste 0 -- -- 44
2017-07-23 21:00:00 27.6 21 Noroeste 34 Noroeste 0 -- -- 36
2017-07-23 20:00:00 29.7 15 Noroeste 27 Noroeste 0 -- -- 25
2017-07-23 19:00:00 30.3 15 Noroeste 29 Oeste 0 -- -- 23
2017-07-23 18:00:00 30.2 12 Noroeste 28 Noroeste 0 -- -- 25
2017-07-23 17:00:00 30.2 14 Noroeste 24 Noroeste 0 -- -- 25
2017-07-23 16:00:00 29.2 12 Oeste 25 Noroeste 0 -- -- 27
2017-07-23 15:00:00 28.2 14 Noroeste 30 Noroeste 0 -- -- 28
2017-07-23 14:00:00 26.9 11 Norte 25 Norte 0 -- -- 33
2017-07-23 13:00:00 25.7 7 Nordeste 18 Norte 0 -- -- 37
2017-07-23 12:00:00 24.4 8 Norte 19 Norte 0 -- -- 40
2017-07-23 11:00:00 21.6 7 Norte 16 Norte 0 -- -- 49
2017-07-23 10:00:00 19.4 8 Este 15 Este 0 -- -- 55
2017-07-23 09:00:00 15.5 6 Norte 10 Norte 0 -- -- 67
2017-07-23 08:00:00 11.3 5 Este 8 Noroeste 0 -- -- 81
2017-07-23 07:00:00 11.6 3 Oeste 6 Sudeste 0 -- -- 78
2017-07-23 06:00:00 12.3 6 Sudeste 8 Sudeste 0 -- -- 77
2017-07-23 05:00:00 13.2 4 Sudeste 9 Sudeste 0 -- -- 74
2017-07-23 04:00:00 13.3 2 Este 6 Sudoeste 0 -- -- 73
2017-07-23 03:00:00 15.1 5 Sur 7 Sudoeste 0 -- -- 66
2017-07-23 02:00:00 16.1 5 Sudoeste 7 Sudoeste 0 -- -- 64
2017-07-23 01:00:00 17.2 5 Sudoeste 6 Oeste 0 -- -- 61
2017-07-23 00:00:00 18.5 4 Oeste 8 Oeste 0 -- -- 57